createdAt,value
2018-01-31T01:52:39.632Z,97404.83
2018-01-31T01:55:05.666Z,97401.60
2018-01-31T01:57:31.692Z,97404.91
2018-01-31T01:59:57.688Z,97394.38
2018-01-31T02:02:23.673Z,97384.08
2018-01-31T02:04:49.729Z,97384.66
2018-01-31T02:07:15.776Z,97384.59
2018-01-31T02:09:41.806Z,97376.38
2018-01-31T02:12:07.875Z,97369.18
2018-01-31T02:14:33.934Z,97364.02
2018-01-31T02:16:59.912Z,97362.08
2018-01-31T02:19:25.945Z,97355.52
2018-01-31T02:21:51.971Z,97343.16
2018-01-31T02:24:18.028Z,97336.08
2018-01-31T02:26:44.087Z,97330.33
2018-01-31T02:29:10.125Z,97321.86
2018-01-31T02:31:36.137Z,97319.80
2018-01-31T02:34:02.168Z,97309.36
2018-01-31T02:36:28.205Z,97305.25
2018-01-31T02:39:06.478Z,97306.73
2018-01-31T02:41:32.566Z,97303.48
2018-01-31T02:43:58.606Z,97299.16
2018-01-31T02:46:24.584Z,97296.88
2018-01-31T02:48:50.636Z,97294.66
2018-01-31T02:51:16.661Z,97288.41
2018-01-31T02:53:42.720Z,97287.89
2018-01-31T02:56:08.737Z,97271.48
2018-01-31T02:58:34.785Z,97274.97
2018-01-31T03:01:00.805Z,97268.39
2018-01-31T03:03:26.884Z,97263.33
2018-01-31T03:05:52.897Z,97252.67
2018-01-31T03:08:18.896Z,97245.98
2018-01-31T03:10:44.921Z,97245.89
2018-01-31T03:13:10.943Z,97246.06
2018-01-31T03:15:37.042Z,97247.44
2018-01-31T03:18:03.044Z,97246.34
2018-01-31T03:20:29.073Z,97244.72
2018-01-31T03:22:55.088Z,97240.70
2018-01-31T03:25:21.182Z,97236.27
2018-01-31T03:27:47.231Z,97231.09
2018-01-31T03:30:13.280Z,97231.80
2018-01-31T03:32:39.341Z,97229.45
2018-01-31T03:35:05.325Z,97229.72
2018-01-31T03:37:31.367Z,97224.75
2018-01-31T03:39:57.388Z,97231.71
2018-01-31T03:42:23.432Z,97224.79
2018-01-31T03:44:49.408Z,97217.37
2018-01-31T03:47:15.468Z,97213.94
2018-01-31T03:49:41.499Z,97208.33
2018-01-31T03:52:07.580Z,97214.30
2018-01-31T03:54:33.632Z,97215.66
2018-01-31T03:56:59.619Z,97213.34
2018-01-31T03:59:25.652Z,97216.31
2018-01-31T04:01:51.673Z,97216.46
2018-01-31T04:04:17.788Z,97209.55
2018-01-31T04:06:43.823Z,97210.94
2018-01-31T04:09:09.852Z,97214.22
2018-01-31T04:11:35.895Z,97212.70
2018-01-31T04:14:01.919Z,97207.89
2018-01-31T04:16:27.954Z,97207.86
2018-01-31T04:18:53.963Z,97199.41
2018-01-31T04:21:20.061Z,97192.80
2018-01-31T04:23:46.084Z,97197.59
2018-01-31T04:26:12.165Z,97191.31
2018-01-31T04:28:38.094Z,97179.58
2018-01-31T04:31:04.108Z,97167.52
2018-01-31T04:33:30.145Z,97169.70
2018-01-31T04:35:56.139Z,97168.93
2018-01-31T04:38:22.165Z,97163.84
2018-01-31T04:40:48.194Z,97159.59
2018-01-31T04:43:14.232Z,97152.95
2018-01-31T04:45:40.657Z,97157.98
2018-01-31T04:48:06.704Z,97158.22
2018-01-31T04:50:32.717Z,97160.55
2018-01-31T04:52:58.945Z,97149.48
2018-01-31T04:55:24.896Z,97147.98
2018-01-31T04:57:50.916Z,97147.22
2018-01-31T05:00:17.017Z,97144.91
2018-01-31T05:02:42.984Z,97146.15
2018-01-31T05:05:09.120Z,97147.61
2018-01-31T05:07:35.199Z,97139.52
2018-01-31T05:10:01.909Z,97136.48
2018-01-31T05:12:27.892Z,97129.84
2018-01-31T05:14:53.938Z,97128.45
2018-01-31T05:17:19.944Z,97137.77
2018-01-31T05:19:45.975Z,97131.95
2018-01-31T05:22:12.011Z,97131.14
2018-01-31T05:24:38.021Z,97128.94
2018-01-31T05:27:04.048Z,97117.33
2018-01-31T05:29:30.015Z,97114.06
2018-01-31T05:31:56.032Z,97111.23
2018-01-31T05:34:22.059Z,97111.62
2018-01-31T05:36:48.064Z,97111.11
2018-01-31T05:39:14.093Z,97107.83
2018-01-31T05:41:40.136Z,97098.77
2018-01-31T05:44:06.151Z,97097.39
2018-01-31T05:46:32.164Z,97090.03
2018-01-31T05:48:58.180Z,97087.27
2018-01-31T05:51:24.244Z,97078.50
2018-01-31T05:53:50.255Z,97074.76
2018-01-31T05:56:16.261Z,97078.55
2018-01-31T05:58:42.286Z,97071.44
2018-01-31T06:01:08.337Z,97061.41
2018-01-31T06:03:34.384Z,97062.03
2018-01-31T06:06:00.361Z,97062.99
2018-01-31T06:08:26.366Z,97062.95
2018-01-31T06:10:52.400Z,97061.94
2018-01-31T06:13:18.445Z,97062.79
2018-01-31T06:15:44.554Z,97063.05
2018-01-31T06:18:10.596Z,97057.13
2018-01-31T06:20:36.624Z,97049.49
2018-01-31T06:23:02.737Z,97049.72
2018-01-31T06:25:28.740Z,97040.43
2018-01-31T06:27:54.771Z,97044.22
2018-01-31T06:30:20.864Z,97045.52
2018-01-31T06:32:46.833Z,97050.53
2018-01-31T06:35:12.869Z,97044.30
2018-01-31T06:37:38.968Z,97042.63
2018-01-31T06:40:05.053Z,97024.91
2018-01-31T06:42:31.120Z,97021.22
2018-01-31T06:44:57.145Z,97025.91
2018-01-31T06:47:23.161Z,97026.11
2018-01-31T06:49:49.147Z,97024.27
2018-01-31T06:52:15.173Z,97013.87
2018-01-31T06:54:41.256Z,97010.14
2018-01-31T06:57:07.296Z,97001.64
2018-01-31T06:59:33.398Z,97012.13
2018-01-31T07:01:59.456Z,97023.02
2018-01-31T07:04:25.430Z,97025.69
2018-01-31T07:06:51.476Z,97028.48
2018-01-31T07:09:17.503Z,97024.38
2018-01-31T07:11:43.534Z,97022.05
2018-01-31T07:14:09.541Z,97008.73
2018-01-31T07:16:35.553Z,96999.73
2018-01-31T07:19:01.565Z,97001.22
2018-01-31T07:21:27.604Z,96998.37
2018-01-31T07:23:53.648Z,96999.30
2018-01-31T07:26:19.645Z,96991.66
2018-01-31T07:28:45.689Z,96999.23
2018-01-31T07:31:11.706Z,97002.02
2018-01-31T07:33:37.712Z,97005.17
2018-01-31T07:36:03.780Z,97009.80
2018-01-31T07:38:29.804Z,97002.95
2018-01-31T07:40:55.862Z,96998.44
2018-01-31T07:43:21.852Z,96991.67
2018-01-31T07:45:47.861Z,96980.59
2018-01-31T07:48:20.964Z,96974.48
2018-01-31T07:50:47.108Z,96972.83
2018-01-31T07:53:13.164Z,96971.14
2018-01-31T07:55:39.181Z,96964.13
2018-01-31T07:58:05.229Z,96957.52
2018-01-31T08:00:31.388Z,96952.92
2018-01-31T08:02:57.448Z,96960.52
2018-01-31T08:05:23.514Z,96955.41
2018-01-31T08:07:49.580Z,96949.66
2018-01-31T08:10:15.621Z,96949.69
2018-01-31T08:12:41.704Z,96940.06
2018-01-31T08:15:07.744Z,96935.50
2018-01-31T08:17:33.748Z,96929.00
2018-01-31T08:19:59.823Z,96926.49
2018-01-31T08:22:25.922Z,96927.88
2018-01-31T08:24:51.964Z,96922.69
2018-01-31T08:27:17.997Z,96921.80
2018-01-31T08:29:44.023Z,96913.63
2018-01-31T08:32:10.100Z,96913.55
2018-01-31T08:34:36.132Z,96906.17
2018-01-31T08:37:02.158Z,96901.16
2018-01-31T08:39:28.197Z,96901.62
2018-01-31T08:41:54.266Z,96897.56
2018-01-31T08:44:20.362Z,96881.47
2018-01-31T08:46:46.395Z,96875.84
2018-01-31T08:49:12.456Z,96873.12
2018-01-31T08:51:38.449Z,96869.81
2018-01-31T08:54:04.494Z,96866.07
2018-01-31T08:56:30.536Z,96862.41
2018-01-31T08:58:56.586Z,96855.41
2018-01-31T09:01:22.660Z,96847.23
2018-01-31T09:03:48.753Z,96848.02
2018-01-31T09:06:14.785Z,96843.11
2018-01-31T09:08:40.845Z,96840.90
2018-01-31T09:11:06.865Z,96834.84
2018-01-31T09:13:32.895Z,96828.86
2018-01-31T09:15:58.960Z,96823.11
2018-01-31T09:18:24.965Z,96824.81
2018-01-31T09:20:51.004Z,96825.31
2018-01-31T09:23:17.025Z,96824.89
2018-01-31T09:25:43.093Z,96815.67
2018-01-31T09:28:09.190Z,96810.20
2018-01-31T09:30:35.133Z,96803.36
2018-01-31T09:33:01.190Z,96805.30
2018-01-31T09:35:27.200Z,96810.16
2018-01-31T09:37:53.221Z,96808.91
2018-01-31T09:40:19.371Z,96801.83
2018-01-31T09:42:45.438Z,96800.76
2018-01-31T09:45:11.588Z,96793.62
2018-01-31T09:47:37.617Z,96793.77
2018-01-31T09:50:03.808Z,96786.72
2018-01-31T09:52:29.845Z,96783.84
2018-01-31T09:54:55.864Z,96786.06
2018-01-31T09:57:21.988Z,96778.88
2018-01-31T09:59:47.975Z,96776.67
2018-01-31T10:02:14.010Z,96766.15
2018-01-31T10:04:40.044Z,96761.67
2018-01-31T10:07:06.016Z,96760.33
2018-01-31T10:09:32.044Z,96762.35
2018-01-31T10:11:58.088Z,96754.70
2018-01-31T10:14:24.141Z,96749.69
2018-01-31T10:16:50.173Z,96750.58
2018-01-31T10:19:16.152Z,96748.19
2018-01-31T10:21:42.177Z,96739.00
2018-01-31T10:24:08.189Z,96737.91
2018-01-31T10:26:34.274Z,96737.88
2018-01-31T10:29:00.312Z,96734.40
2018-01-31T10:31:26.346Z,96732.85
2018-01-31T10:33:52.425Z,96725.06
2018-01-31T10:36:18.444Z,96706.83
2018-01-31T10:38:44.445Z,96696.89
2018-01-31T10:41:10.488Z,96688.52
2018-01-31T10:43:36.599Z,96682.59
2018-01-31T10:46:02.624Z,96670.08
2018-01-31T10:48:28.672Z,96664.11
2018-01-31T10:50:54.704Z,96659.39
2018-01-31T10:53:20.773Z,96653.66
2018-01-31T10:58:12.976Z,96646.14
2018-01-31T11:00:39.035Z,96627.09
2018-01-31T11:03:05.087Z,96627.22
2018-01-31T11:05:31.073Z,96612.53
2018-01-31T11:07:57.052Z,96614.48
2018-01-31T11:10:23.167Z,96605.56
2018-01-31T11:12:49.196Z,96601.80
2018-01-31T11:15:15.209Z,96592.20
2018-01-31T11:17:41.272Z,96585.54
2018-01-31T11:20:07.291Z,96574.33
2018-01-31T11:22:33.348Z,96564.22
2018-01-31T11:24:59.441Z,96566.50
2018-01-31T11:27:25.505Z,96555.80
2018-01-31T11:29:51.501Z,96543.81
2018-01-31T11:32:17.589Z,96531.49
2018-01-31T11:34:43.628Z,96531.73
2018-01-31T11:37:09.640Z,96526.30
2018-01-31T11:39:35.653Z,96520.94
2018-01-31T11:42:01.757Z,96514.57
2018-01-31T11:44:27.772Z,96510.73
2018-01-31T11:46:53.796Z,96496.23
2018-01-31T11:49:19.809Z,96494.29
2018-01-31T11:51:45.836Z,96483.55
2018-01-31T11:54:11.888Z,96482.83
2018-01-31T11:56:37.921Z,96485.19
2018-01-31T11:59:03.953Z,96470.46
2018-01-31T12:01:29.944Z,96464.70
2018-01-31T12:03:56.004Z,96454.48
2018-01-31T12:06:22.061Z,96448.98
2018-01-31T12:08:48.065Z,96455.02
2018-01-31T12:11:14.084Z,96437.73
2018-01-31T12:14:14.741Z,96438.53
2018-01-31T12:16:53.002Z,96425.58
2018-01-31T12:19:39.853Z,96425.19
2018-01-31T12:22:17.916Z,96401.69
2018-01-31T12:24:56.404Z,96405.94
2018-01-31T12:27:34.676Z,96390.52
2018-01-31T12:30:13.084Z,96392.53
2018-01-31T12:32:51.245Z,96380.23
2018-01-31T12:35:29.596Z,96381.63
2018-01-31T12:38:07.725Z,96369.45
2018-01-31T12:40:33.537Z,96367.28
2018-01-31T12:42:59.261Z,96372.23
2018-01-31T12:45:25.013Z,96364.80
2018-01-31T12:51:06.226Z,96360.48
2018-01-31T12:53:44.397Z,96356.45
2018-01-31T12:56:19.386Z,96342.80
2018-01-31T12:58:52.449Z,96342.42
2018-01-31T13:01:42.576Z,96329.72
2018-01-31T13:04:20.840Z,96322.36
2018-01-31T13:06:59.092Z,96324.83
2018-01-31T13:09:37.351Z,96324.75
2018-01-31T13:12:15.428Z,96326.45
2018-01-31T13:14:58.341Z,96321.03
2018-01-31T13:17:30.435Z,96318.31
2018-01-31T13:20:08.765Z,96324.99
2018-01-31T13:22:48.799Z,96302.99
2018-01-31T13:25:26.996Z,96311.67
2018-01-31T13:28:11.452Z,96303.44
2018-01-31T13:30:49.821Z,96303.34
2018-01-31T13:33:27.925Z,96294.14
2018-01-31T13:36:06.351Z,96287.31
2018-01-31T13:38:44.500Z,96277.25
2018-01-31T13:41:22.679Z,96279.86
2018-01-31T13:44:00.972Z,96270.57
2018-01-31T13:46:39.180Z,96268.64
2018-01-31T13:52:26.744Z,96255.84
2018-01-31T13:55:05.227Z,96251.83
2018-01-31T14:00:52.032Z,96243.11
2018-01-31T14:03:30.408Z,96237.83
2018-01-31T14:06:08.589Z,96229.33
2018-01-31T14:08:46.785Z,96224.14
2018-01-31T14:11:25.104Z,96206.98
2018-01-31T14:14:03.289Z,96190.03
2018-01-31T14:16:41.376Z,96195.67
2018-01-31T14:19:19.556Z,96190.43
2018-01-31T14:21:57.731Z,96189.28
2018-01-31T14:24:35.916Z,96177.75
2018-01-31T14:27:14.222Z,96164.50
2018-01-31T14:29:52.665Z,96160.03
2018-01-31T14:32:30.847Z,96159.55
2018-01-31T14:35:09.191Z,96151.14
2018-01-31T14:37:34.919Z,96155.14
2018-01-31T14:40:00.704Z,96146.48
2018-01-31T14:42:26.463Z,96139.63
2018-01-31T14:44:52.230Z,96138.59
2018-01-31T14:47:18.028Z,96151.06
2018-01-31T14:49:43.768Z,96145.72
2018-01-31T14:52:09.584Z,96149.83
2018-01-31T14:54:35.332Z,96155.02
2018-01-31T14:57:01.076Z,96147.05
2018-01-31T14:59:26.788Z,96144.34
2018-01-31T15:01:52.556Z,96142.46
2018-01-31T15:04:18.572Z,96129.78
2018-01-31T15:06:44.316Z,96123.51
2018-01-31T15:09:10.343Z,96114.55
2018-01-31T15:11:36.079Z,96113.78
2018-01-31T15:14:01.829Z,96113.55
2018-01-31T15:16:27.588Z,96104.56
2018-01-31T15:18:53.356Z,96101.23
2018-01-31T15:21:19.105Z,96096.13
2018-01-31T15:23:44.852Z,96089.96
2018-01-31T15:26:10.592Z,96079.14
2018-01-31T15:28:36.344Z,96067.21
2018-01-31T15:31:02.072Z,96064.91
2018-01-31T15:33:27.822Z,96053.63
2018-01-31T15:35:53.580Z,96039.08
2018-01-31T15:38:19.396Z,96034.14
2018-01-31T15:40:45.132Z,96036.47
2018-01-31T15:43:11.025Z,96030.59
2018-01-31T15:45:36.808Z,96024.16
2018-01-31T15:48:02.550Z,96016.45
2018-01-31T15:50:28.344Z,96005.38
2018-01-31T15:52:54.084Z,95999.98
2018-01-31T15:55:19.832Z,95996.05
2018-01-31T15:57:45.617Z,95975.95
2018-01-31T16:00:11.374Z,95976.87
2018-01-31T16:02:37.192Z,95975.09
2018-01-31T16:05:02.932Z,95963.02
2018-01-31T16:07:28.687Z,95967.97
2018-01-31T16:09:54.468Z,95972.69
2018-01-31T16:12:20.212Z,95969.84
2018-01-31T16:14:45.946Z,95962.73
2018-01-31T16:17:11.970Z,95952.22
2018-01-31T16:19:50.105Z,95958.55
2018-01-31T16:22:16.104Z,95954.84
2018-01-31T16:24:42.189Z,95960.46
2018-01-31T16:27:20.332Z,95962.96
2018-01-31T16:29:48.145Z,95948.88
2018-01-31T16:35:22.418Z,95938.91
2018-01-31T16:37:48.467Z,95926.62
2018-01-31T16:40:14.508Z,95918.60
2018-01-31T16:42:40.564Z,95903.61
2018-01-31T16:45:06.628Z,95904.78
2018-01-31T16:47:32.667Z,95897.74
2018-01-31T16:49:58.712Z,95894.34
2018-01-31T16:52:24.744Z,95884.30
2018-01-31T16:54:50.771Z,95880.77
2018-01-31T16:57:16.861Z,95879.13
2018-01-31T16:59:42.896Z,95864.77
2018-01-31T17:02:09.004Z,95865.55
2018-01-31T17:04:35.064Z,95865.14
2018-01-31T17:07:01.150Z,95863.99
2018-01-31T17:09:27.185Z,95854.33
2018-01-31T17:11:53.185Z,95853.30
2018-01-31T17:14:19.494Z,95843.00
2018-01-31T17:16:45.477Z,95840.95
2018-01-31T17:19:11.501Z,95839.08
2018-01-31T17:21:37.536Z,95826.89
2018-01-31T17:24:03.575Z,95824.92
2018-01-31T17:26:35.673Z,95824.02
2018-01-31T17:29:01.697Z,95812.19
2018-01-31T17:31:27.768Z,95803.18
2018-01-31T17:33:53.897Z,95797.48
2018-01-31T17:36:19.968Z,95797.11
2018-01-31T17:38:46.305Z,95793.13
2018-01-31T17:41:12.353Z,95797.85
2018-01-31T17:43:38.415Z,95795.20
2018-01-31T17:46:04.508Z,95798.52
2018-01-31T17:48:30.506Z,95784.70
2018-01-31T17:50:56.564Z,95788.55
2018-01-31T17:53:22.612Z,95781.08
2018-01-31T17:55:48.697Z,95772.04
2018-01-31T17:58:14.763Z,95763.72
2018-01-31T18:00:40.830Z,95761.99
2018-01-31T18:03:06.876Z,95759.62
2018-01-31T18:05:33.280Z,95755.26
2018-01-31T18:07:59.398Z,95753.78
2018-01-31T18:10:25.458Z,95750.30
2018-01-31T18:12:51.588Z,95742.25
2018-01-31T18:15:17.641Z,95743.88
2018-01-31T18:17:43.682Z,95742.22
2018-01-31T18:20:09.732Z,95746.31
2018-01-31T18:22:35.804Z,95738.73
2018-01-31T18:25:02.014Z,95731.13
2018-01-31T18:27:28.434Z,95722.34
2018-01-31T18:29:54.506Z,95721.39
2018-01-31T18:32:20.531Z,95710.81
2018-01-31T18:34:46.559Z,95711.36
2018-01-31T18:37:12.630Z,95707.80
2018-01-31T18:39:38.742Z,95717.25
2018-01-31T18:42:04.763Z,95722.60
2018-01-31T18:44:30.724Z,95715.80
2018-01-31T18:46:56.772Z,95721.09
2018-01-31T18:49:23.097Z,95712.02
2018-01-31T18:51:49.109Z,95705.89
2018-01-31T18:54:15.109Z,95702.72
2018-01-31T18:56:41.160Z,95696.54
2018-01-31T18:59:07.273Z,95694.42
2018-01-31T19:01:33.284Z,95689.48
2018-01-31T19:03:59.304Z,95682.86
2018-01-31T19:06:25.447Z,95681.22
2018-01-31T19:08:51.524Z,95672.37
2018-01-31T19:11:17.540Z,95668.62
2018-01-31T19:13:43.497Z,95672.22
2018-01-31T19:16:10.460Z,95668.23
2018-01-31T19:18:36.482Z,95666.70
2018-01-31T19:21:02.566Z,95662.81
2018-01-31T19:23:28.534Z,95656.41
2018-01-31T19:25:54.544Z,95659.97
2018-01-31T19:28:20.561Z,95659.42
2018-01-31T19:30:46.599Z,95658.33
2018-01-31T19:33:12.645Z,95659.16
2018-01-31T19:35:38.664Z,95659.25
2018-01-31T19:38:04.693Z,95646.88
2018-01-31T19:40:30.716Z,95654.70
2018-01-31T19:42:56.723Z,95652.08
2018-01-31T19:45:22.765Z,95649.63
2018-01-31T19:47:48.769Z,95642.55
2018-01-31T19:50:14.905Z,95646.92
2018-01-31T19:52:41.016Z,95642.28
2018-01-31T19:55:07.097Z,95634.82
2018-01-31T19:57:33.133Z,95643.13
2018-01-31T19:59:59.556Z,95630.11
2018-01-31T20:02:25.628Z,95637.11
2018-01-31T20:04:51.648Z,95633.00
2018-01-31T20:07:17.842Z,95632.30
2018-01-31T20:09:43.937Z,95625.22
2018-01-31T20:12:10.224Z,95621.17
2018-01-31T20:14:36.268Z,95622.59
2018-01-31T20:17:02.354Z,95624.47
2018-01-31T20:19:28.452Z,95622.00
2018-01-31T20:21:54.454Z,95618.39
2018-01-31T20:24:20.505Z,95618.70
2018-01-31T20:26:46.540Z,95621.17
2018-01-31T20:29:12.603Z,95617.02
2018-01-31T20:31:38.635Z,95613.39
2018-01-31T20:34:04.700Z,95609.84
2018-01-31T20:36:30.756Z,95607.60
2018-01-31T20:38:57.080Z,95606.00
2018-01-31T20:41:23.178Z,95594.06
2018-01-31T20:43:49.205Z,95607.97
2018-01-31T20:46:15.146Z,95602.72
2018-01-31T20:48:41.156Z,95597.23
2018-01-31T20:51:07.140Z,95591.77
2018-01-31T20:53:33.149Z,95582.34
2018-01-31T20:55:59.162Z,95583.72
2018-01-31T20:58:25.292Z,95580.36
2018-01-31T21:00:51.264Z,95581.72
2018-01-31T21:03:17.365Z,95581.40
2018-01-31T21:05:43.481Z,95583.64
2018-01-31T21:08:09.548Z,95575.32
2018-01-31T21:10:35.585Z,95580.45
2018-01-31T21:13:01.610Z,95575.17
2018-01-31T21:15:27.655Z,95568.89
2018-01-31T21:17:53.697Z,95569.66
2018-01-31T21:20:19.756Z,95565.89
2018-01-31T21:22:45.725Z,95567.52
2018-01-31T21:25:11.765Z,95563.42
2018-01-31T21:27:37.728Z,95558.17
2018-01-31T21:30:03.744Z,95553.56
2018-01-31T21:32:29.784Z,95558.75
2018-01-31T21:34:55.848Z,95554.72
2018-01-31T21:37:21.823Z,95552.95
2018-01-31T21:39:47.899Z,95551.20
2018-01-31T21:42:14.048Z,95549.15
2018-01-31T21:44:40.047Z,95551.45
2018-01-31T21:47:06.157Z,95547.55
2018-01-31T21:49:32.184Z,95555.17
2018-01-31T21:51:58.212Z,95552.55
2018-01-31T21:54:24.232Z,95549.31
2018-01-31T21:56:50.313Z,95542.02
2018-01-31T21:59:16.437Z,95541.70
2018-01-31T22:01:42.484Z,95536.64
2018-01-31T22:04:08.533Z,95532.61
2018-01-31T22:06:34.558Z,95531.84
2018-01-31T22:09:00.576Z,95532.20
2018-01-31T22:11:26.550Z,95530.12
2018-01-31T22:13:52.600Z,95526.83
2018-01-31T22:16:18.625Z,95523.97
2018-01-31T22:18:44.660Z,95521.58
2018-01-31T22:21:10.694Z,95525.77
2018-01-31T22:23:36.732Z,95516.52
2018-01-31T22:26:02.716Z,95515.91
2018-01-31T22:28:28.997Z,95516.94
2018-01-31T22:30:54.996Z,95521.42
2018-01-31T22:33:21.008Z,95510.02
2018-01-31T22:35:47.075Z,95525.06
2018-01-31T22:38:13.108Z,95532.71
2018-01-31T22:40:39.164Z,95528.86
2018-01-31T22:43:05.180Z,95519.14
2018-01-31T22:45:31.210Z,95521.92
2018-01-31T22:47:57.252Z,95521.50
2018-01-31T22:50:23.296Z,95507.08
2018-01-31T22:52:49.265Z,95509.78
2018-01-31T22:55:15.284Z,95505.72
2018-01-31T22:57:41.370Z,95507.58
2018-01-31T23:00:07.341Z,95504.19
2018-01-31T23:02:33.409Z,95502.97
2018-01-31T23:04:59.442Z,95501.27
2018-01-31T23:07:25.524Z,95500.66
2018-01-31T23:09:51.557Z,95507.22
2018-01-31T23:12:23.516Z,95510.22
2018-01-31T23:14:51.520Z,95507.44
2018-01-31T23:17:23.827Z,95501.88
2018-01-31T23:19:49.904Z,95500.66
2018-01-31T23:22:15.952Z,95499.58
2018-01-31T23:24:42.004Z,95492.09
2018-01-31T23:27:08.016Z,95497.86
2018-01-31T23:29:34.068Z,95500.41
2018-01-31T23:32:00.440Z,95492.00
2018-01-31T23:34:26.410Z,95492.00
2018-01-31T23:36:52.502Z,95482.82
2018-01-31T23:39:18.525Z,95486.85
2018-01-31T23:41:44.549Z,95494.17
2018-01-31T23:44:10.577Z,95485.38
2018-01-31T23:46:36.644Z,95484.39
2018-01-31T23:49:02.707Z,95483.52
2018-01-31T23:51:28.708Z,95480.29
2018-01-31T23:53:54.736Z,95477.77
2018-01-31T23:56:20.793Z,95472.13
2018-01-31T23:58:46.837Z,95469.29
